This is the latest recevied weather packets stored in our database for station/object JH5EWP-13. If no packets are shown the sender has not sent any weather packets the latest 10 day(s).
| Time | Temp. | Humidity | Pressure | Rain* | Wind** | Luminosity | Snow |
|---|---|---|---|---|---|---|---|
| 1777946925 | 20° C | 41% | 1010.9 hPa | 0 mm | - | - | - |
| 1777946024 | 19.44° C | 42% | 1011 hPa | 0 mm | - | - | - |
| 1777945124 | 19.44° C | 42% | 1011.3 hPa | 0 mm | - | - | - |
| 1777944226 | 19.44° C | 41% | 1011.2 hPa | 0 mm | - | - | - |
| 1777943326 | 18.89° C | 42% | 1011.2 hPa | 0 mm | - | - | - |
| 1777942426 | 18.89° C | 40% | 1011.2 hPa | 0 mm | - | - | - |
| 1777941526 | 18.89° C | 38% | 1011.2 hPa | 0 mm | - | - | - |
| 1777940626 | 18.89° C | 34% | 1011.2 hPa | 0 mm | - | - | - |
| 1777939726 | 19.44° C | 32% | 1011.1 hPa | 0 mm | - | - | - |
| 1777938826 | 18.89° C | 32% | 1011.2 hPa | 0 mm | - | - | - |
| 1777937925 | 18.33° C | 32% | 1011.2 hPa | 0 mm | - | - | - |
| 1777937025 | 18.33° C | 36% | 1011.3 hPa | 0 mm | - | - | - |
| 1777936125 | 17.22° C | 41% | 1011.4 hPa | 0 mm | - | - | - |
| 1777935225 | 16.67° C | 43% | 1011.2 hPa | 0 mm | - | - | - |
| 1777934325 | 15° C | 48% | 1011.3 hPa | 0 mm | - | - | - |
| 1777933425 | 14.44° C | 51% | 1011.2 hPa | 0 mm | - | - | - |
| 1777932525 | 13.33° C | 54% | 1011.2 hPa | 0 mm | - | - | - |
| 1777931624 | 12.78° C | 58% | 1011 hPa | 0 mm | - | - | - |
| 1777930724 | 11.67° C | 65% | 1011 hPa | 0 mm | - | - | - |
| 1777929824 | 11.11° C | 69% | 1010.9 hPa | 0 mm | - | - | - |
| 1777928926 | 11.11° C | 70% | 1010.8 hPa | 0 mm | - | - | - |
| 1777928026 | 10.56° C | 71% | 1010.3 hPa | 0 mm | - | - | - |
| 1777927126 | 10.56° C | 72% | 1010.5 hPa | 0 mm | - | - | - |
| 1777926226 | 10.56° C | 71% | 1010.4 hPa | 0 mm | - | - | - |
| 1777925326 | 10.56° C | 71% | 1010.1 hPa | 0 mm | - | - | - |
* Rain latest hour (hover to see other rain measurements)
** Current wind speed in m/s (hover to see current wind gust speed)